Time;durP1;ratioP1;P1;durP2;ratioP2;P2;SDS_P1;SDS_P2;PMS_P1;PMS_P2;Temp;Humidity;BMP_temperature;BMP_pressure;BME280_temperature;BME280_humidity;BME280_pressure;Samples;Min_cycle;Max_cycle;Signal;HPM_P1;HPM_P2
2022/06/30 00:00:17;;;;;;;1034.07;971.55;;;;;;;25.08;41.95;100904.94;693208;28;46340;-66
2022/06/30 00:00:39;;;;;;;1040.05;976.75;;;;;;;25.07;41.59;100906.06;693979;28;22385;-66
2022/06/30 00:01:01;;;;;;;1043.82;979.83;;;;;;;25.06;41.88;100904.38;693440;28;45271;-66
2022/06/30 00:01:22;;;;;;;1044.63;980.47;;;;;;;25.06;41.51;100905.22;692733;28;23457;-67
2022/06/30 00:01:44;;;;;;;1041.88;978.63;;;;;;;25.05;41.65;100900.81;693677;28;46348;-67
2022/06/30 00:02:06;;;;;;;1037.30;974.25;;;;;;;25.05;41.85;100902.72;694125;28;23441;-67
2022/06/30 00:02:27;;;;;;;1035.43;971.53;;;;;;;25.05;41.96;100906.34;693345;28;67347;-66
2022/06/30 00:02:48;;;;;;;1043.38;977.90;;;;;;;25.05;42.00;100906.34;694490;28;22420;-66
2022/06/30 00:03:10;;;;;;;1047.85;982.95;;;;;;;25.07;41.58;100909.66;693712;28;21499;-66
2022/06/30 00:03:33;;;;;;;1046.13;981.35;;;;;;;25.06;42.05;100902.44;693314;28;46321;-66
2022/06/30 00:03:55;;;;;;;1046.70;981.50;;;;;;;25.06;42.00;100901.63;692627;28;67254;-66
2022/06/30 00:04:17;;;;;;;1045.45;980.22;;;;;;;25.05;41.79;100905.47;694058;28;22419;-66
2022/06/30 00:04:38;;;;;;;1043.57;978.78;;;;;;;25.06;41.63;100907.97;692805;28;44342;-66
2022/06/30 00:04:59;;;;;;;1042.80;978.28;;;;;;;25.07;41.90;100909.66;694932;28;24009;-66
2022/06/30 00:05:21;;;;;;;1046.78;982.00;;;;;;;25.09;42.15;100909.38;693143;28;46318;-66
2022/06/30 00:05:42;;;;;;;1051.00;986.17;;;;;;;25.10;41.67;100913.81;694299;28;22376;-66
2022/06/30 00:06:04;;;;;;;1051.15;985.60;;;;;;;25.11;41.43;100907.16;694032;28;22167;-66
2022/06/30 00:06:26;;;;;;;1049.45;983.67;;;;;;;25.11;41.50;100907.16;691769;28;67313;-66
2022/06/30 00:06:47;;;;;;;1049.38;984.40;;;;;;;25.08;41.54;100899.41;694544;28;21556;-66
2022/06/30 00:07:08;;;;;;;1052.18;987.28;;;;;;;25.09;41.39;100910.19;693468;28;23435;-66
2022/06/30 00:07:30;;;;;;;1048.05;983.05;;;;;;;25.09;41.47;100910.19;694705;28;21358;-66
2022/06/30 00:07:51;;;;;;;1042.65;977.17;;;;;;;25.07;41.53;100906.88;693467;28;45214;-66
2022/06/30 00:08:13;;;;;;;1045.07;978.47;;;;;;;25.07;41.75;100912.41;693550;28;23424;-66
2022/06/30 00:08:36;;;;;;;1048.10;982.97;;;;;;;25.08;41.43;100911.31;693725;28;46275;-66
2022/06/30 00:08:57;;;;;;;1050.13;984.90;;;;;;;25.04;41.42;100906.59;692460;28;69691;-66
2022/06/30 00:09:18;;;;;;;1048.60;984.28;;;;;;;25.08;41.41;100914.09;694033;28;21613;-66
2022/06/30 00:09:40;;;;;;;1047.65;983.92;;;;;;;25.03;41.73;100905.75;693954;28;23436;-66
2022/06/30 00:10:02;;;;;;;1048.18;982.70;;;;;;;25.07;41.51;100909.66;694151;28;47185;-66
2022/06/30 00:10:23;;;;;;;1048.68;982.22;;;;;;;25.09;41.65;100910.19;693222;28;45146;-66
2022/06/30 00:10:44;;;;;;;1050.28;982.63;;;;;;;25.09;41.39;100912.97;694172;28;22330;-66
2022/06/30 00:11:06;;;;;;;1052.57;984.28;;;;;;;25.07;41.68;100911.59;693757;28;22407;-66
2022/06/30 00:11:29;;;;;;;1052.85;984.35;;;;;;;25.04;41.95;100906.59;693506;28;44305;-66
2022/06/30 00:11:50;;;;;;;1055.50;986.90;;;;;;;25.05;41.55;100917.38;693239;28;44397;-66
2022/06/30 00:12:11;;;;;;;1053.53;984.92;;;;;;;25.07;41.81;100917.13;693759;28;23486;-67
2022/06/30 00:12:32;;;;;;;1052.25;983.55;;;;;;;25.06;41.91;100918.22;693328;28;46235;-67
2022/06/30 00:12:54;;;;;;;1050.45;981.85;;;;;;;25.05;41.84;100911.00;693981;28;21554;-66
2022/06/30 00:13:16;;;;;;;1053.47;984.85;;;;;;;25.06;41.69;100916.25;692939;28;45221;-66
2022/06/30 00:13:38;;;;;;;1057.07;988.38;;;;;;;25.06;41.81;100918.22;694043;28;22381;-67
2022/06/30 00:14:00;;;;;;;1053.60;985.03;;;;;;;25.06;41.78;100921.78;693464;28;69406;-67
2022/06/30 00:14:22;;;;;;;1051.15;983.13;;;;;;;25.06;41.87;100915.44;694047;28;21533;-67
2022/06/30 00:14:43;;;;;;;1048.32;982.78;;;;;;;25.06;41.39;100918.22;692824;28;44364;-66
2022/06/30 00:15:05;;;;;;;1051.25;985.53;;;;;;;25.02;42.04;100909.63;694158;28;21174;-66
2022/06/30 00:15:26;;;;;;;1048.22;981.80;;;;;;;25.04;42.02;100921.25;692884;28;45219;-66
2022/06/30 00:15:48;;;;;;;1045.00;979.03;;;;;;;25.03;41.61;100908.50;694205;28;23478;-66
2022/06/30 00:16:10;;;;;;;1046.30;979.53;;;;;;;25.04;41.85;100923.19;693142;28;44382;-66
2022/06/30 00:16:31;;;;;;;1042.72;975.58;;;;;;;25.04;41.79;100917.66;693005;28;44379;-66
2022/06/30 00:16:53;;;;;;;1050.80;983.10;;;;;;;25.04;41.62;100924.00;693087;28;47508;-67
2022/06/30 00:17:14;;;;;;;1055.13;986.70;;;;;;;25.05;41.80;100916.53;693672;28;21336;-67
2022/06/30 00:17:35;;;;;;;1049.03;980.67;;;;;;;25.04;41.60;100912.94;694112;28;22389;-66
2022/06/30 00:17:57;;;;;;;1047.00;979.08;;;;;;;25.06;41.93;100919.03;693970;28;21540;-66
2022/06/30 00:18:19;;;;;;;1046.20;978.22;;;;;;;25.06;41.48;100913.50;693155;28;44331;-66
2022/06/30 00:18:40;;;;;;;1049.32;980.97;;;;;;;25.05;41.69;100917.38;694266;28;22386;-66
2022/06/30 00:19:02;;;;;;;1053.78;985.42;;;;;;;25.05;41.77;100919.28;693290;28;46197;-66
2022/06/30 00:19:23;;;;;;;1050.90;982.92;;;;;;;25.05;41.76;100913.78;693155;28;44372;-66
2022/06/30 00:19:45;;;;;;;1048.05;980.35;;;;;;;25.05;41.64;100914.63;694189;28;22394;-66
2022/06/30 00:20:07;;;;;;;1050.63;983.88;;;;;;;25.05;41.57;100922.06;693224;28;43558;-66
2022/06/30 00:20:30;;;;;;;1043.15;978.05;;;;;;;25.03;41.82;100911.28;693119;28;46243;-66
2022/06/30 00:20:51;;;;;;;1043.85;979.90;;;;;;;25.04;41.64;100909.38;693271;28;45241;-66
2022/06/30 00:21:12;;;;;;;1043.88;980.22;;;;;;;25.05;41.65;100916.53;693923;28;23470;-66
2022/06/30 00:21:34;;;;;;;1038.80;974.70;;;;;;;25.04;41.64;100915.72;690263;28;46392;-66
2022/06/30 00:22:00;;;;;;;1040.47;976.35;;;;;;;25.05;41.81;100908.25;687632;28;60717;-66
2022/06/30 00:22:22;;;;;;;1043.50;977.33;;;;;;;25.05;41.81;100913.78;689646;28;1573;-66
2022/06/30 00:22:43;;;;;;;1047.70;981.97;;;;;;;25.02;41.90;100912.41;686986;28;67472;-66
2022/06/30 00:23:04;;;;;;;1047.15;982.22;;;;;;;25.06;41.75;100913.50;689111;28;22393;-66
2022/06/30 00:23:26;;;;;;;1049.63;983.88;;;;;;;25.08;41.59;100919.59;688505;28;22392;-66
2022/06/30 00:23:49;;;;;;;1050.88;983.30;;;;;;;25.08;41.80;100913.22;688750;28;21439;-66
2022/06/30 00:24:11;;;;;;;1047.95;981.30;;;;;;;25.07;41.62;100912.41;686202;28;90312;-66
2022/06/30 00:24:32;;;;;;;1047.20;980.45;;;;;;;25.08;41.77;100910.47;688726;28;23488;-66
2022/06/30 00:24:53;;;;;;;1034.20;971.53;;;;;;;25.08;41.84;100914.09;688671;28;23164;-66
2022/06/30 00:25:17;;;;;;;1034.88;973.15;;;;;;;25.08;42.02;100918.75;688468;28;22391;-66
2022/06/30 00:25:43;;;;;;;1048.03;983.63;;;;;;;25.08;41.45;100907.69;684799;28;136169;-67
2022/06/30 00:26:04;;;;;;;1048.25;981.47;;;;;;;25.06;41.43;100907.16;688588;28;22388;-66
2022/06/30 00:26:25;;;;;;;1053.78;986.10;;;;;;;25.07;41.87;100912.41;686474;28;22546;-66
2022/06/30 00:26:48;;;;;;;1053.82;987.72;;;;;;;25.06;42.05;100909.91;685312;28;44391;-67
2022/06/30 00:27:11;;;;;;;1052.35;986.70;;;;;;;25.05;42.03;100906.34;684711;28;44403;-66
2022/06/30 00:27:33;;;;;;;1048.80;982.53;;;;;;;25.07;41.90;100906.88;685333;28;68386;-66
2022/06/30 00:27:55;;;;;;;1046.25;979.92;;;;;;;25.08;41.70;100914.09;686541;28;22393;-66
2022/06/30 00:28:18;;;;;;;1046.38;979.03;;;;;;;25.07;41.86;100901.34;682424;28;69429;-66
2022/06/30 00:28:40;;;;;;;1045.90;978.10;;;;;;;25.08;41.60;100907.69;681982;28;90288;-66
2022/06/30 00:29:01;;;;;;;1042.85;975.85;;;;;;;25.09;41.65;100903.84;684170;28;23385;-66
2022/06/30 00:29:22;;;;;;;1036.85;973.47;;;;;;;25.07;41.62;100898.59;683879;28;47252;-66
2022/06/30 00:29:44;;;;;;;1038.78;975.65;;;;;;;25.05;41.87;100903.56;685183;28;21541;-66
2022/06/30 00:30:07;;;;;;;1042.70;979.20;;;;;;;25.06;41.79;100899.69;684603;28;46810;-66
2022/06/30 00:30:29;;;;;;;1035.40;973.55;;;;;;;25.05;41.85;100903.56;685735;28;69873;-66
2022/06/30 00:30:51;;;;;;;1045.63;982.53;;;;;;;25.06;41.59;100904.38;684161;28;69432;-66
2022/06/30 00:31:14;;;;;;;1039.90;977.45;;;;;;;25.05;41.63;100899.97;684957;28;46288;-66
2022/06/30 00:31:36;;;;;;;1018.15;957.92;;;;;;;25.03;41.42;100894.69;687033;28;46326;-66
2022/06/30 00:31:57;;;;;;;999.40;941.13;;;;;;;25.06;41.70;100899.69;687519;28;45035;-66
2022/06/30 00:32:18;;;;;;;993.33;935.45;;;;;;;25.02;41.86;100893.06;687712;28;47135;-66
2022/06/30 00:32:40;;;;;;;977.10;920.50;;;;;;;25.08;41.60;100905.78;688740;28;23475;-67
2022/06/30 00:33:02;;;;;;;982.15;925.25;;;;;;;25.06;41.94;100898.88;689833;28;21548;-66
2022/06/30 00:33:23;;;;;;;980.10;923.30;;;;;;;25.07;41.47;100895.00;687763;28;44402;-66
2022/06/30 00:33:45;;;;;;;966.13;910.28;;;;;;;25.08;41.81;100897.50;688018;28;46270;-66
2022/06/30 00:34:06;;;;;;;963.22;907.58;;;;;;;25.09;41.70;100898.31;688535;28;23468;-66
2022/06/30 00:34:27;;;;;;;955.72;900.67;;;;;;;25.08;41.30;100904.94;688492;28;22393;-66
2022/06/30 00:34:49;;;;;;;950.08;895.38;;;;;;;25.07;41.27;100904.13;688979;28;24409;-66
2022/06/30 00:35:10;;;;;;;957.92;902.65;;;;;;;25.07;41.30;100895.00;687881;28;46349;-66
2022/06/30 00:35:32;;;;;;;963.92;908.20;;;;;;;25.06;41.47;100901.63;689261;28;22168;-66
2022/06/30 00:35:53;;;;;;;964.53;908.70;;;;;;;25.05;41.73;100898.03;688185;28;21741;-66
2022/06/30 00:36:15;;;;;;;962.08;906.47;;;;;;;25.05;41.73;100898.03;687795;28;45260;-66
2022/06/30 00:36:36;;;;;;;978.05;921.30;;;;;;;25.06;41.71;100902.44;686323;28;66533;-66
2022/06/30 00:36:57;;;;;;;992.20;934.30;;;;;;;25.06;41.87;100898.88;688500;28;22419;-66
2022/06/30 00:37:18;;;;;;;995.90;937.65;;;;;;;25.05;41.68;100895.28;688863;28;21510;-66
2022/06/30 00:37:40;;;;;;;1004.90;945.85;;;;;;;25.09;41.37;100898.31;688436;28;21550;-66
2022/06/30 00:38:02;;;;;;;1012.28;952.28;;;;;;;25.08;41.39;100896.66;689428;28;22164;-66
2022/06/30 00:38:24;;;;;;;970.07;913.37;;;;;;;25.05;41.75;100903.56;687540;28;69371;-66
2022/06/30 00:38:45;;;;;;;905.75;853.97;;;;;;;25.03;41.50;100897.47;688066;28;46493;-66
2022/06/30 00:39:08;;;;;;;901.13;849.63;;;;;;;25.01;41.41;100894.16;687554;28;46319;-66
2022/06/30 00:39:30;;;;;;;904.22;852.50;;;;;;;25.04;41.53;100903.84;687572;28;45231;-66
2022/06/30 00:39:52;;;;;;;871.40;821.75;;;;;;;25.04;41.90;100899.13;687326;28;66735;-66
2022/06/30 00:40:13;;;;;;;843.75;795.85;;;;;;;25.05;41.57;100897.19;688703;28;22400;-66
2022/06/30 00:40:35;;;;;;;840.85;793.22;;;;;;;25.05;41.96;100894.44;689921;28;23387;-66
2022/06/30 00:40:56;;;;;;;844.20;796.28;;;;;;;25.03;41.40;100894.69;687945;28;46403;-66
2022/06/30 00:41:18;;;;;;;866.30;817.10;;;;;;;25.04;41.64;100899.13;687667;28;22378;-66
2022/06/30 00:41:39;;;;;;;863.65;814.60;;;;;;;25.02;41.65;100893.06;685154;28;45243;-66
2022/06/30 00:42:01;;;;;;;853.30;804.78;;;;;;;25.06;41.43;100902.44;685250;28;47512;-66
2022/06/30 00:42:23;;;;;;;813.55;767.50;;;;;;;25.05;41.93;100899.97;684758;28;46293;-66
2022/06/30 00:42:45;;;;;;;813.40;767.35;;;;;;;25.06;41.78;100896.09;686008;28;22458;-66
2022/06/30 00:43:06;;;;;;;794.58;750.08;;;;;;;25.05;41.46;100892.53;685966;28;44397;-66
2022/06/30 00:43:27;;;;;;;773.33;730.33;;;;;;;25.04;41.48;100890.84;685797;28;23351;-66
2022/06/30 00:43:49;;;;;;;772.88;729.85;;;;;;;25.05;41.54;100892.53;686278;28;22178;-66
2022/06/30 00:44:12;;;;;;;789.63;745.42;;;;;;;25.02;41.81;100887.53;685027;28;45226;-67
2022/06/30 00:44:34;;;;;;;816.13;769.97;;;;;;;25.00;41.65;100885.03;684606;28;66693;-66
2022/06/30 00:44:55;;;;;;;818.30;772.00;;;;;;;25.03;41.47;100889.16;685976;28;22413;-66
2022/06/30 00:45:16;;;;;;;817.30;770.97;;;;;;;25.05;41.60;100894.44;684806;28;44373;-66
2022/06/30 00:45:40;;;;;;;768.83;726.17;;;;;;;25.04;41.50;100890.84;685799;28;22424;-66
2022/06/30 00:46:02;;;;;;;778.67;735.05;;;;;;;25.05;41.96;100897.19;684349;28;66824;-66
2022/06/30 00:46:23;;;;;;;762.20;720.05;;;;;;;25.06;41.93;100893.34;685750;28;44414;-66
2022/06/30 00:46:44;;;;;;;772.08;729.00;;;;;;;25.07;41.51;100895.84;686043;28;22297;-66
2022/06/30 00:47:05;;;;;;;803.80;758.20;;;;;;;25.09;41.53;100892.78;684555;28;43748;-66
2022/06/30 00:47:27;;;;;;;828.35;781.30;;;;;;;25.09;41.77;100890.84;685884;28;22316;-66
2022/06/30 00:47:49;;;;;;;830.40;783.28;;;;;;;25.09;41.29;100887.28;685874;28;21307;-66
2022/06/30 00:48:11;;;;;;;832.65;785.45;;;;;;;25.09;41.31;100888.09;684938;28;47190;-66
2022/06/30 00:48:32;;;;;;;856.40;807.65;;;;;;;25.08;41.46;100891.13;684973;28;46311;-66
2022/06/30 00:48:53;;;;;;;879.60;829.42;;;;;;;25.07;41.85;100887.53;686445;28;21535;-66
2022/06/30 00:49:17;;;;;;;896.33;845.03;;;;;;;25.05;41.55;100892.53;684790;28;45266;-66
2022/06/30 00:49:39;;;;;;;882.85;832.42;;;;;;;25.07;41.66;100887.53;683884;28;91933;-66
2022/06/30 00:50:00;;;;;;;912.28;859.92;;;;;;;25.06;41.59;100888.63;686097;28;23732;-66
2022/06/30 00:50:21;;;;;;;977.00;920.28;;;;;;;25.05;41.22;100895.28;685942;28;21448;-66
2022/06/30 00:50:44;;;;;;;1003.58;944.72;;;;;;;25.03;41.69;100883.66;685688;28;21522;-66
2022/06/30 00:51:05;;;;;;;967.38;911.35;;;;;;;25.05;41.71;100892.53;683997;28;69438;-66
2022/06/30 00:51:26;;;;;;;956.30;901.13;;;;;;;25.05;41.58;100884.22;686985;28;21572;-66
2022/06/30 00:51:48;;;;;;;942.22;887.97;;;;;;;25.05;41.81;100888.91;688920;28;22402;-66
2022/06/30 00:52:11;;;;;;;931.33;877.85;;;;;;;25.06;41.47;100893.34;687824;28;46296;-66
2022/06/30 00:52:35;;;;;;;946.33;891.90;;;;;;;25.05;41.63;100889.75;687238;28;69527;-67
2022/06/30 00:52:56;;;;;;;944.88;890.50;;;;;;;25.06;41.67;100887.81;686257;28;92477;-66
2022/06/30 00:53:18;;;;;;;946.92;892.42;;;;;;;25.07;41.37;100893.06;688666;28;22385;-66
2022/06/30 00:53:41;;;;;;;960.50;905.05;;;;;;;25.07;41.45;100893.06;687832;28;46451;-66
2022/06/30 00:54:04;;;;;;;961.15;905.72;;;;;;;25.06;41.56;100896.91;687994;28;67480;-66
2022/06/30 00:54:28;;;;;;;979.88;923.20;;;;;;;25.02;41.87;100898.59;686306;28;69310;-66
2022/06/30 00:54:51;;;;;;;991.78;934.20;;;;;;;25.04;41.72;100896.38;687688;28;67265;-66
2022/06/30 00:55:15;;;;;;;993.83;936.10;;;;;;;25.03;41.92;100900.22;687161;28;69418;-66
2022/06/30 00:55:39;;;;;;;997.38;939.33;;;;;;;25.03;41.83;100894.69;685906;28;114794;-66
2022/06/30 00:56:01;;;;;;;998.60;940.35;;;;;;;25.04;42.04;100890.03;686942;28;69426;-66
2022/06/30 00:56:24;;;;;;;1022.55;961.95;;;;;;;25.03;41.59;100894.69;688060;28;67477;-66
2022/06/30 00:56:47;;;;;;;1023.30;962.83;;;;;;;25.04;41.69;100898.31;687522;28;67180;-66
2022/06/30 00:57:10;;;;;;;1038.90;976.95;;;;;;;25.04;41.72;100899.13;686670;28;67501;-67
2022/06/30 00:57:33;;;;;;;1010.13;950.72;;;;;;;25.04;42.03;100896.38;685792;28;90242;-67
2022/06/30 00:57:54;;;;;;;1004.63;945.83;;;;;;;25.02;42.06;100893.06;688156;28;46292;-67
2022/06/30 00:58:16;;;;;;;1016.43;956.73;;;;;;;25.05;41.78;100906.34;687812;28;44378;-67
2022/06/30 00:58:40;;;;;;;1021.85;961.65;;;;;;;25.07;41.98;100901.34;687685;28;46341;-67
2022/06/30 00:59:03;;;;;;;1028.32;967.13;;;;;;;25.07;41.54;100895.00;687719;28;92293;-67
2022/06/30 00:59:26;;;;;;;1035.45;973.55;;;;;;;25.08;41.58;100900.25;686710;28;69598;-66
2022/06/30 00:59:48;;;;;;;1037.07;974.47;;;;;;;25.09;41.68;100898.31;686920;28;67379;-66
2022/06/30 01:00:12;;;;;;;1029.30;968.15;;;;;;;25.08;41.92;100897.50;687865;28;45274;-66
2022/06/30 01:00:35;;;;;;;1028.00;966.97;;;;;;;25.09;41.70;100896.38;686491;28;90735;-66
2022/06/30 01:00:57;;;;;;;1043.97;979.42;;;;;;;25.08;41.66;100897.50;687421;28;69896;-66
2022/06/30 01:01:24;;;;;;;1026.45;964.60;;;;;;;25.06;41.88;100899.69;687532;28;22364;-66
2022/06/30 01:01:46;;;;;;;1009.20;949.85;;;;;;;25.06;41.68;100896.91;682470;28;137727;-66
2022/06/30 01:02:08;;;;;;;1006.03;947.10;;;;;;;25.07;41.88;100895.00;683968;28;67824;-66
2022/06/30 01:02:29;;;;;;;1000.22;941.83;;;;;;;25.08;41.92;100894.75;685551;28;21359;-66
2022/06/30 01:02:51;;;;;;;993.97;936.17;;;;;;;25.08;42.09;100897.50;684816;28;46306;-66
2022/06/30 01:03:13;;;;;;;976.03;919.45;;;;;;;25.07;41.77;100900.53;685273;28;21538;-66
2022/06/30 01:03:35;;;;;;;964.22;908.55;;;;;;;25.07;41.51;100895.84;684919;28;45096;-66
2022/06/30 01:03:56;;;;;;;965.60;909.80;;;;;;;25.07;41.71;100895.84;686489;28;46304;-66
2022/06/30 01:04:18;;;;;;;962.17;906.67;;;;;;;25.07;41.94;100889.47;685410;28;46343;-66
2022/06/30 01:04:41;;;;;;;968.97;912.90;;;;;;;25.04;41.62;100890.03;685176;28;46368;-66
2022/06/30 01:05:03;;;;;;;984.95;927.65;;;;;;;25.06;41.89;100894.16;684165;28;67151;-67
2022/06/30 01:05:25;;;;;;;1007.25;948.35;;;;;;;25.05;41.94;100899.97;685105;28;46571;-66
2022/06/30 01:05:47;;;;;;;994.60;936.72;;;;;;;25.05;42.07;100895.28;684725;28;69404;-66
2022/06/30 01:06:08;;;;;;;968.22;912.33;;;;;;;25.04;41.61;100888.09;684597;28;21553;-66
2022/06/30 01:06:30;;;;;;;962.28;906.75;;;;;;;25.04;41.80;100890.84;686137;28;22191;-66
2022/06/30 01:06:55;;;;;;;965.50;909.70;;;;;;;25.01;41.82;100888.63;685648;28;46309;-67
2022/06/30 01:07:16;;;;;;;978.87;922.07;;;;;;;25.05;42.02;100895.28;682001;28;115327;-66
2022/06/30 01:07:39;;;;;;;937.92;883.90;;;;;;;25.03;41.82;100897.47;684959;28;47186;-67
2022/06/30 01:08:02;;;;;;;905.05;853.25;;;;;;;25.05;42.16;100892.53;684406;28;69428;-66
2022/06/30 01:08:24;;;;;;;924.05;871.05;;;;;;;25.05;42.16;100892.53;684178;28;67146;-66
2022/06/30 01:08:46;;;;;;;934.90;881.20;;;;;;;25.05;42.16;100888.91;685119;28;46101;-67
2022/06/30 01:09:07;;;;;;;938.93;884.93;;;;;;;25.06;42.35;100890.56;684991;28;44365;-66
2022/06/30 01:12:50;;;;;;;970.70;914.40;;;;;;;25.06;42.36;100896.09;683523;28;160505;-66
2022/06/30 01:13:11;;;;;;;1012.85;953.70;;;;;;;25.05;42.04;100892.53;686838;28;69452;-66
2022/06/30 01:13:35;;;;;;;1002.38;943.92;;;;;;;25.07;42.03;100889.47;688373;28;47234;-66
2022/06/30 01:13:56;;;;;;;1011.25;951.88;;;;;;;25.06;42.07;100888.63;687244;28;69733;-66
2022/06/30 01:14:19;;;;;;;1000.00;941.58;;;;;;;25.07;42.27;100892.25;688177;28;21533;-66
2022/06/30 01:14:40;;;;;;;1009.45;950.40;;;;;;;25.06;41.92;100888.63;686886;28;67514;-66
2022/06/30 01:15:01;;;;;;;1025.00;964.65;;;;;;;25.05;42.28;100892.53;688755;28;21532;-66
2022/06/30 01:15:22;;;;;;;1021.42;961.42;;;;;;;25.06;42.34;100891.41;688532;28;22393;-66
2022/06/30 01:15:45;;;;;;;1011.33;952.13;;;;;;;25.07;41.98;100890.31;688640;28;20899;-66
2022/06/30 01:16:06;;;;;;;1013.47;954.08;;;;;;;25.08;42.35;100891.13;686631;28;69438;-67
2022/06/30 01:16:27;;;;;;;967.92;911.88;;;;;;;25.07;42.25;100883.97;686281;28;23433;-66
2022/06/30 01:16:48;;;;;;;978.50;921.72;;;;;;;25.07;41.93;100884.78;686113;28;22280;-66
2022/06/30 01:17:10;;;;;;;1015.78;956.22;;;;;;;25.07;42.00;100887.53;685258;28;22381;-67
2022/06/30 01:17:31;;;;;;;1009.47;950.58;;;;;;;25.08;42.37;100894.75;685173;28;45142;-66
2022/06/30 01:17:53;;;;;;;1017.17;957.70;;;;;;;25.07;42.33;100893.06;685366;28;22408;-66
2022/06/30 01:18:15;;;;;;;1015.05;955.65;;;;;;;25.05;42.29;100888.91;685283;28;45251;-66
2022/06/30 01:18:36;;;;;;;1024.57;964.15;;;;;;;25.06;42.26;100894.16;686226;28;22390;-66
2022/06/30 01:18:57;;;;;;;1024.07;963.38;;;;;;;25.05;42.18;100884.22;686009;28;22333;-66
2022/06/30 01:19:19;;;;;;;1023.08;962.53;;;;;;;25.06;42.36;100888.63;684929;28;45226;-66
2022/06/30 01:19:50;;;;;;;1005.03;946.22;;;;;;;25.07;42.27;100889.47;684415;28;46305;-66
2022/06/30 01:20:13;;;;;;;968.88;912.67;;;;;;;25.09;42.47;100890.03;681682;28;138318;-66
2022/06/30 01:20:34;;;;;;;923.28;870.25;;;;;;;25.07;42.58;100887.53;685066;28;47746;-66
2022/06/30 01:20:56;;;;;;;942.45;888.20;;;;;;;25.07;42.49;100887.53;685758;28;46387;-66
2022/06/30 01:21:18;;;;;;;914.20;861.80;;;;;;;25.06;42.32;100880.34;684214;28;44383;-66
2022/06/30 01:21:57;;;;;;;929.72;876.33;;;;;;;25.08;42.54;100891.13;687334;28;21594;-67
2022/06/30 01:22:19;;;;;;;946.67;892.27;;;;;;;25.07;42.59;100881.19;687318;28;137279;-67
2022/06/30 01:22:41;;;;;;;949.00;894.33;;;;;;;25.07;42.47;100892.25;690584;28;46299;-66
2022/06/30 01:23:04;;;;;;;917.17;864.53;;;;;;;25.07;42.29;100886.72;690250;28;46303;-67
2022/06/30 01:23:29;;;;;;;863.78;814.55;;;;;;;25.07;42.28;100890.31;689908;28;61723;-66
2022/06/30 01:23:52;;;;;;;876.05;826.00;;;;;;;25.08;42.14;100891.13;692016;28;21306;-66
2022/06/30 01:24:13;;;;;;;916.45;863.90;;;;;;;25.09;42.27;100890.84;689557;28;69807;-66
2022/06/30 01:24:34;;;;;;;965.60;909.80;;;;;;;25.04;42.58;100888.09;691027;28;23412;-66
2022/06/30 01:24:56;;;;;;;966.00;910.13;;;;;;;25.08;42.81;100886.44;691321;28;22159;-66
2022/06/30 01:25:18;;;;;;;920.53;867.70;;;;;;;25.07;42.36;100884.78;692682;28;44320;-66
2022/06/30 01:25:39;;;;;;;926.55;873.28;;;;;;;25.07;42.38;100890.31;693028;28;44388;-66
2022/06/30 01:26:00;;;;;;;986.03;928.67;;;;;;;25.08;42.45;100889.22;693722;28;21545;-66
2022/06/30 01:26:23;;;;;;;967.63;911.63;;;;;;;25.08;42.27;100880.06;693645;28;22235;-66
2022/06/30 01:26:45;;;;;;;978.97;922.22;;;;;;;25.07;42.42;100887.53;692561;28;69162;-66
2022/06/30 01:27:06;;;;;;;1012.63;953.25;;;;;;;25.07;42.60;100883.97;690617;28;69394;-66
2022/06/30 01:27:27;;;;;;;1016.60;956.88;;;;;;;25.07;42.81;100886.72;690667;28;23430;-67
2022/06/30 01:27:49;;;;;;;1020.05;960.13;;;;;;;25.06;42.60;100885.03;691234;28;24100;-66
2022/06/30 01:28:11;;;;;;;1010.88;951.75;;;;;;;25.05;42.68;100884.22;690819;28;22430;-66
2022/06/30 01:28:32;;;;;;;1016.28;956.55;;;;;;;25.05;43.03;100888.91;690414;28;45269;-66
2022/06/30 01:28:53;;;;;;;1020.67;960.67;;;;;;;25.00;43.09;100882.28;692232;28;21699;-66
2022/06/30 01:29:15;;;;;;;1011.97;952.75;;;;;;;24.98;42.57;100878.97;689385;28;45301;-67
2022/06/30 01:29:37;;;;;;;1017.47;957.78;;;;;;;24.97;43.27;100884.75;691158;28;21559;-66
2022/06/30 01:29:58;;;;;;;1031.70;970.53;;;;;;;24.95;43.27;100885.03;690904;28;46883;-66
2022/06/30 01:30:20;;;;;;;1028.07;967.25;;;;;;;24.95;43.27;100887.78;692227;28;23348;-66
2022/06/30 01:30:42;;;;;;;1016.53;956.72;;;;;;;24.97;43.13;100882.81;691179;28;45215;-67
2022/06/30 01:31:03;;;;;;;1006.35;947.58;;;;;;;24.97;42.82;100882.00;692387;28;46603;-67
2022/06/30 01:31:25;;;;;;;1026.07;965.65;;;;;;;24.97;42.96;100885.56;691345;28;21550;-66
2022/06/30 01:31:46;;;;;;;1032.35;971.28;;;;;;;24.96;43.36;100883.91;691272;28;45237;-66
2022/06/30 01:32:07;;;;;;;1009.55;950.47;;;;;;;24.97;43.10;100885.56;691136;28;23578;-66
2022/06/30 01:32:30;;;;;;;1026.18;965.53;;;;;;;24.97;43.02;100885.56;691001;28;22502;-66
2022/06/30 01:32:52;;;;;;;1019.20;959.17;;;;;;;24.99;42.84;100882.53;689971;28;69290;-66
2022/06/30 01:33:13;;;;;;;1032.43;971.33;;;;;;;24.98;43.20;100883.63;690186;28;44353;-66
2022/06/30 01:33:36;;;;;;;1021.65;961.60;;;;;;;24.99;43.31;100882.53;691333;28;22406;-66
2022/06/30 01:33:57;;;;;;;995.90;937.90;;;;;;;24.99;43.04;100888.88;689760;28;67476;-67
2022/06/30 01:34:19;;;;;;;991.42;933.78;;;;;;;24.98;42.84;100881.72;690930;28;22499;-66
2022/06/30 01:34:40;;;;;;;1017.40;957.65;;;;;;;24.97;43.34;100885.56;691214;28;21581;-67
2022/06/30 01:35:01;;;;;;;1004.55;945.67;;;;;;;24.97;43.20;100880.06;689501;28;45262;-67
2022/06/30 01:35:23;;;;;;;965.20;909.40;;;;;;;24.97;43.26;100882.00;691035;28;22451;-67
2022/06/30 01:35:45;;;;;;;981.25;924.30;;;;;;;24.97;43.58;100888.34;690413;28;46347;-67
2022/06/30 01:36:06;;;;;;;989.90;932.28;;;;;;;24.98;43.35;100886.41;691209;28;21531;-66
2022/06/30 01:36:28;;;;;;;988.17;930.78;;;;;;;24.99;43.32;100888.06;689799;28;45229;-67
2022/06/30 01:36:51;;;;;;;995.50;937.53;;;;;;;24.98;43.17;100890.00;691141;28;23492;-67
2022/06/30 01:37:13;;;;;;;985.05;927.88;;;;;;;24.98;43.55;100884.50;688045;28;92241;-67
2022/06/30 01:37:44;;;;;;;994.47;936.65;;;;;;;24.98;43.49;100880.88;689633;28;67552;-67
2022/06/30 01:38:07;;;;;;;984.78;927.53;;;;;;;24.98;43.38;100891.94;687087;28;135431;-67
2022/06/30 01:38:28;;;;;;;984.42;927.28;;;;;;;24.98;43.20;100883.63;690331;28;46360;-67
2022/06/30 01:38:49;;;;;;;974.85;918.45;;;;;;;24.97;43.74;100885.56;691130;28;19816;-67
2022/06/30 01:39:10;;;;;;;990.20;932.67;;;;;;;24.98;43.52;100884.50;690966;28;22389;-67
2022/06/30 01:39:32;;;;;;;1007.70;949.00;;;;;;;24.97;43.33;100884.75;691757;28;21498;-66
2022/06/30 01:39:54;;;;;;;1015.53;956.10;;;;;;;24.98;43.35;100880.88;690202;28;44169;-66
2022/06/30 01:40:15;;;;;;;1020.47;960.55;;;;;;;25.00;43.27;100889.75;689782;28;46379;-66
2022/06/30 01:40:37;;;;;;;1004.75;946.15;;;;;;;25.01;43.37;100894.16;690851;28;21518;-66
2022/06/30 01:40:58;;;;;;;1002.65;944.20;;;;;;;24.98;43.13;100876.19;690237;28;44389;-66
2022/06/30 01:41:20;;;;;;;1016.22;956.83;;;;;;;25.00;43.15;100886.97;690471;28;23403;-66
2022/06/30 01:41:41;;;;;;;1024.32;964.13;;;;;;;25.00;43.32;100887.81;690336;28;46201;-66